sensor_id;sensor_type;location;lat;lon;timestamp;pressure;altitude;pressure_sealevel;temperature;humidity
16481;BME280;44634;54.110;12.138;2022-07-29T00:01:00;101511.63;;;13.84;100.00
16481;BME280;44634;54.110;12.138;2022-07-29T00:03:28;101504.22;;;13.97;100.00
16481;BME280;44634;54.110;12.138;2022-07-29T00:05:56;101506.19;;;13.95;100.00
16481;BME280;44634;54.110;12.138;2022-07-29T00:08:26;101508.16;;;13.93;100.00
16481;BME280;44634;54.110;12.138;2022-07-29T00:10:53;101506.75;;;14.08;100.00
16481;BME280;44634;54.110;12.138;2022-07-29T00:13:21;101497.34;;;14.33;100.00
16481;BME280;44634;54.110;12.138;2022-07-29T00:15:59;101492.56;;;14.37;100.00
16481;BME280;44634;54.110;12.138;2022-07-29T00:18:30;101485.53;;;14.55;100.00
16481;BME280;44634;54.110;12.138;2022-07-29T00:20:58;101486.13;;;14.29;100.00
16481;BME280;44634;54.110;12.138;2022-07-29T00:23:26;101491.22;;;14.70;100.00
16481;BME280;44634;54.110;12.138;2022-07-29T00:25:56;101491.88;;;14.35;100.00
16481;BME280;44634;54.110;12.138;2022-07-29T00:28:23;101480.78;;;14.39;100.00
16481;BME280;44634;54.110;12.138;2022-07-29T00:30:51;101474.03;;;14.54;100.00
16481;BME280;44634;54.110;12.138;2022-07-29T00:33:21;101471.59;;;14.71;100.00
16481;BME280;44634;54.110;12.138;2022-07-29T00:35:49;101472.25;;;14.45;100.00
16481;BME280;44634;54.110;12.138;2022-07-29T00:38:19;101470.56;;;14.44;100.00
16481;BME280;44634;54.110;12.138;2022-07-29T00:40:47;101470.19;;;14.20;100.00
16481;BME280;44634;54.110;12.138;2022-07-29T00:43:17;101471.28;;;14.37;100.00
16481;BME280;44634;54.110;12.138;2022-07-29T00:45:45;101473.94;;;14.37;100.00
16481;BME280;44634;54.110;12.138;2022-07-29T00:48:14;101475.31;;;14.41;100.00
16481;BME280;44634;54.110;12.138;2022-07-29T00:50:43;101475.66;;;14.18;100.00
16481;BME280;44634;54.110;12.138;2022-07-29T00:53:11;101472.28;;;14.16;100.00
16481;BME280;44634;54.110;12.138;2022-07-29T00:55:39;101480.78;;;14.29;100.00
16481;BME280;44634;54.110;12.138;2022-07-29T00:58:08;101478.03;;;14.12;100.00
16481;BME280;44634;54.110;12.138;2022-07-29T01:00:36;101485.16;;;14.21;100.00
16481;BME280;44634;54.110;12.138;2022-07-29T01:03:04;101485.16;;;14.21;100.00
16481;BME280;44634;54.110;12.138;2022-07-29T01:05:32;101482.34;;;14.32;100.00
16481;BME280;44634;54.110;12.138;2022-07-29T01:08:18;101478.03;;;14.02;100.00
16481;BME280;44634;54.110;12.138;2022-07-29T01:10:46;101478.31;;;14.09;100.00
16481;BME280;44634;54.110;12.138;2022-07-29T01:13:15;101477.94;;;14.04;100.00
16481;BME280;44634;54.110;12.138;2022-07-29T01:15:46;101486.94;;;14.30;100.00
16481;BME280;44634;54.110;12.138;2022-07-29T01:18:18;101482.06;;;14.35;100.00
16481;BME280;44634;54.110;12.138;2022-07-29T01:21:08;101475.50;;;14.20;100.00
16481;BME280;44634;54.110;12.138;2022-07-29T01:24:11;101481.78;;;14.28;100.00
16481;BME280;44634;54.110;12.138;2022-07-29T01:26:46;101484.06;;;14.70;100.00
16481;BME280;44634;54.110;12.138;2022-07-29T01:29:22;101469.94;;;15.25;100.00
16481;BME280;44634;54.110;12.138;2022-07-29T01:32:07;101471.97;;;15.13;100.00
16481;BME280;44634;54.110;12.138;2022-07-29T01:34:57;101474.25;;;14.80;100.00
16481;BME280;44634;54.110;12.138;2022-07-29T01:37:29;101460.94;;;14.80;100.00
16481;BME280;44634;54.110;12.138;2022-07-29T01:39:58;101467.41;;;15.05;100.00
16481;BME280;44634;54.110;12.138;2022-07-29T01:42:34;101470.75;;;15.07;100.00
16481;BME280;44634;54.110;12.138;2022-07-29T01:45:08;101475.25;;;14.70;100.00
16481;BME280;44634;54.110;12.138;2022-07-29T01:47:43;101473.72;;;14.67;100.00
16481;BME280;44634;54.110;12.138;2022-07-29T01:50:14;101468.88;;;14.90;100.00
16481;BME280;44634;54.110;12.138;2022-07-29T01:52:47;101477.31;;;14.48;100.00
16481;BME280;44634;54.110;12.138;2022-07-29T01:55:17;101466.09;;;14.82;100.00
16481;BME280;44634;54.110;12.138;2022-07-29T01:57:48;101467.81;;;14.73;100.00
16481;BME280;44634;54.110;12.138;2022-07-29T02:00:18;101461.09;;;14.13;100.00
16481;BME280;44634;54.110;12.138;2022-07-29T02:02:47;101457.47;;;14.61;100.00
16481;BME280;44634;54.110;12.138;2022-07-29T02:05:18;101457.78;;;14.57;100.00
16481;BME280;44634;54.110;12.138;2022-07-29T02:07:49;101459.25;;;14.33;100.00
16481;BME280;44634;54.110;12.138;2022-07-29T02:10:22;101464.28;;;14.36;100.00
16481;BME280;44634;54.110;12.138;2022-07-29T02:12:52;101462.50;;;14.07;100.00
16481;BME280;44634;54.110;12.138;2022-07-29T02:15:24;101474.56;;;13.63;100.00
16481;BME280;44634;54.110;12.138;2022-07-29T02:17:55;101466.59;;;13.82;100.00
16481;BME280;44634;54.110;12.138;2022-07-29T02:20:25;101467.28;;;13.94;100.00
16481;BME280;44634;54.110;12.138;2022-07-29T02:22:54;101460.88;;;13.77;100.00
16481;BME280;44634;54.110;12.138;2022-07-29T02:25:23;101456.50;;;13.95;100.00
16481;BME280;44634;54.110;12.138;2022-07-29T02:28:05;101454.69;;;13.96;100.00
16481;BME280;44634;54.110;12.138;2022-07-29T02:30:36;101456.66;;;13.84;100.00
16481;BME280;44634;54.110;12.138;2022-07-29T02:33:07;101460.34;;;14.30;100.00
16481;BME280;44634;54.110;12.138;2022-07-29T02:35:36;101455.56;;;14.53;100.00
16481;BME280;44634;54.110;12.138;2022-07-29T02:38:06;101453.81;;;14.15;100.00
16481;BME280;44634;54.110;12.138;2022-07-29T02:40:53;101439.72;;;14.05;100.00
16481;BME280;44634;54.110;12.138;2022-07-29T02:43:23;101445.13;;;14.32;100.00
16481;BME280;44634;54.110;12.138;2022-07-29T02:45:54;101444.53;;;14.48;100.00
16481;BME280;44634;54.110;12.138;2022-07-29T02:48:29;101444.81;;;14.45;100.00
16481;BME280;44634;54.110;12.138;2022-07-29T02:51:05;101438.50;;;14.46;100.00
16481;BME280;44634;54.110;12.138;2022-07-29T02:53:38;101440.50;;;14.24;100.00
16481;BME280;44634;54.110;12.138;2022-07-29T02:56:10;101430.56;;;14.17;100.00
16481;BME280;44634;54.110;12.138;2022-07-29T02:58:42;101439.69;;;14.14;100.00
16481;BME280;44634;54.110;12.138;2022-07-29T03:01:16;101443.97;;;14.35;100.00
16481;BME280;44634;54.110;12.138;2022-07-29T03:03:49;101437.38;;;14.48;100.00
16481;BME280;44634;54.110;12.138;2022-07-29T03:06:19;101442.13;;;14.54;100.00
16481;BME280;44634;54.110;12.138;2022-07-29T03:09:04;101440.81;;;14.58;100.00
16481;BME280;44634;54.110;12.138;2022-07-29T03:11:39;101445.28;;;14.21;100.00
16481;BME280;44634;54.110;12.138;2022-07-29T03:14:17;101443.56;;;14.49;100.00
16481;BME280;44634;54.110;12.138;2022-07-29T03:16:48;101444.78;;;14.54;100.00
16481;BME280;44634;54.110;12.138;2022-07-29T03:19:18;101446.13;;;14.21;100.00
16481;BME280;44634;54.110;12.138;2022-07-29T03:21:47;101436.84;;;14.25;100.00
16481;BME280;44634;54.110;12.138;2022-07-29T03:24:25;101445.22;;;14.30;100.00
16481;BME280;44634;54.110;12.138;2022-07-29T03:26:54;101439.97;;;14.11;100.00
16481;BME280;44634;54.110;12.138;2022-07-29T03:29:22;101445.63;;;14.45;100.00
16481;BME280;44634;54.110;12.138;2022-07-29T03:32:01;101438.97;;;14.69;100.00
16481;BME280;44634;54.110;12.138;2022-07-29T03:34:32;101438.91;;;14.51;100.00
16481;BME280;44634;54.110;12.138;2022-07-29T03:37:00;101436.78;;;14.54;100.00
16481;BME280;44634;54.110;12.138;2022-07-29T03:39:33;101437.19;;;14.87;100.00
16481;BME280;44634;54.110;12.138;2022-07-29T03:42:03;101440.50;;;14.99;100.00
16481;BME280;44634;54.110;12.138;2022-07-29T03:44:32;101437.31;;;14.95;100.00
16481;BME280;44634;54.110;12.138;2022-07-29T03:47:03;101431.16;;;14.95;100.00
16481;BME280;44634;54.110;12.138;2022-07-29T03:49:36;101432.06;;;15.03;100.00
16481;BME280;44634;54.110;12.138;2022-07-29T03:52:05;101427.00;;;15.28;100.00
16481;BME280;44634;54.110;12.138;2022-07-29T03:54:33;101433.31;;;14.81;100.00
16481;BME280;44634;54.110;12.138;2022-07-29T03:57:02;101429.84;;;14.99;100.00
16481;BME280;44634;54.110;12.138;2022-07-29T03:59:32;101442.19;;;15.17;100.00
16481;BME280;44634;54.110;12.138;2022-07-29T04:02:02;101435.28;;;15.07;100.00
16481;BME280;44634;54.110;12.138;2022-07-29T04:04:32;101434.66;;;15.13;100.00
16481;BME280;44634;54.110;12.138;2022-07-29T04:07:00;101433.94;;;15.21;100.00
16481;BME280;44634;54.110;12.138;2022-07-29T04:09:28;101444.63;;;15.11;100.00
16481;BME280;44634;54.110;12.138;2022-07-29T04:11:56;101431.38;;;15.01;100.00
16481;BME280;44634;54.110;12.138;2022-07-29T04:14:30;101416.50;;;15.26;100.00
16481;BME280;44634;54.110;12.138;2022-07-29T04:16:58;101427.78;;;15.56;100.00
16481;BME280;44634;54.110;12.138;2022-07-29T04:19:28;101439.44;;;15.72;100.00
16481;BME280;44634;54.110;12.138;2022-07-29T04:21:55;101429.31;;;15.76;100.00
16481;BME280;44634;54.110;12.138;2022-07-29T04:24:23;101438.97;;;15.95;100.00
16481;BME280;44634;54.110;12.138;2022-07-29T04:26:52;101437.28;;;16.20;100.00
16481;BME280;44634;54.110;12.138;2022-07-29T04:29:20;101425.84;;;16.01;100.00
16481;BME280;44634;54.110;12.138;2022-07-29T04:31:51;101438.13;;;15.94;100.00
16481;BME280;44634;54.110;12.138;2022-07-29T04:34:19;101429.78;;;15.71;100.00
16481;BME280;44634;54.110;12.138;2022-07-29T04:36:50;101416.88;;;15.85;100.00
16481;BME280;44634;54.110;12.138;2022-07-29T04:39:21;101426.63;;;15.76;100.00
16481;BME280;44634;54.110;12.138;2022-07-29T04:41:49;101425.38;;;15.62;100.00
16481;BME280;44634;54.110;12.138;2022-07-29T04:44:20;101420.03;;;15.80;100.00
16481;BME280;44634;54.110;12.138;2022-07-29T04:46:54;101422.00;;;15.78;100.00
16481;BME280;44634;54.110;12.138;2022-07-29T04:49:22;101418.19;;;15.81;100.00
16481;BME280;44634;54.110;12.138;2022-07-29T04:51:51;101414.28;;;15.93;100.00
16481;BME280;44634;54.110;12.138;2022-07-29T04:54:19;101407.06;;;16.11;100.00
16481;BME280;44634;54.110;12.138;2022-07-29T04:56:47;101412.44;;;16.19;100.00
16481;BME280;44634;54.110;12.138;2022-07-29T04:59:15;101411.16;;;16.23;100.00
16481;BME280;44634;54.110;12.138;2022-07-29T05:01:42;101408.50;;;16.23;100.00
16481;BME280;44634;54.110;12.138;2022-07-29T05:04:10;101407.91;;;16.46;100.00
16481;BME280;44634;54.110;12.138;2022-07-29T05:06:39;101406.75;;;16.48;100.00
16481;BME280;44634;54.110;12.138;2022-07-29T05:09:08;101412.31;;;16.55;100.00
16481;BME280;44634;54.110;12.138;2022-07-29T05:11:36;101413.00;;;16.57;100.00
16481;BME280;44634;54.110;12.138;2022-07-29T05:14:03;101408.91;;;16.71;100.00
16481;BME280;44634;54.110;12.138;2022-07-29T05:16:31;101413.00;;;16.57;100.00
16481;BME280;44634;54.110;12.138;2022-07-29T05:18:59;101417.41;;;16.40;100.00
16481;BME280;44634;54.110;12.138;2022-07-29T05:21:27;101409.16;;;16.25;100.00
16481;BME280;44634;54.110;12.138;2022-07-29T05:23:55;101410.59;;;16.72;100.00
16481;BME280;44634;54.110;12.138;2022-07-29T05:26:24;101416.34;;;16.93;100.00
16481;BME280;44634;54.110;12.138;2022-07-29T05:28:52;101417.56;;;17.15;100.00
16481;BME280;44634;54.110;12.138;2022-07-29T05:31:21;101424.59;;;17.24;100.00
16481;BME280;44634;54.110;12.138;2022-07-29T05:33:49;101425.78;;;17.30;100.00
16481;BME280;44634;54.110;12.138;2022-07-29T05:36:16;101425.13;;;17.44;100.00
16481;BME280;44634;54.110;12.138;2022-07-29T05:38:44;101424.47;;;17.50;100.00
16481;BME280;44634;54.110;12.138;2022-07-29T05:41:12;101429.00;;;17.58;100.00
16481;BME280;44634;54.110;12.138;2022-07-29T05:43:41;101418.97;;;17.60;100.00
16481;BME280;44634;54.110;12.138;2022-07-29T05:46:09;101417.31;;;17.67;100.00
16481;BME280;44634;54.110;12.138;2022-07-29T05:48:37;101415.16;;;17.87;100.00
16481;BME280;44634;54.110;12.138;2022-07-29T05:51:05;101419.66;;;18.10;100.00
16481;BME280;44634;54.110;12.138;2022-07-29T05:53:33;101426.97;;;18.25;100.00
16481;BME280;44634;54.110;12.138;2022-07-29T05:56:03;101441.38;;;18.16;100.00
16481;BME280;44634;54.110;12.138;2022-07-29T05:58:31;101427.59;;;18.43;100.00
16481;BME280;44634;54.110;12.138;2022-07-29T06:01:00;101421.59;;;18.41;100.00
16481;BME280;44634;54.110;12.138;2022-07-29T06:03:28;101428.94;;;18.39;100.00
16481;BME280;44634;54.110;12.138;2022-07-29T06:05:56;101417.69;;;18.52;100.00
16481;BME280;44634;54.110;12.138;2022-07-29T06:08:25;101435.22;;;18.70;100.00
16481;BME280;44634;54.110;12.138;2022-07-29T06:10:52;101445.16;;;18.93;100.00
16481;BME280;44634;54.110;12.138;2022-07-29T06:13:20;101444.78;;;19.04;100.00
16481;BME280;44634;54.110;12.138;2022-07-29T06:15:48;101449.94;;;19.14;100.00
16481;BME280;44634;54.110;12.138;2022-07-29T06:18:17;101472.31;;;19.52;100.00
16481;BME280;44634;54.110;12.138;2022-07-29T06:20:47;101477.09;;;19.42;100.00
16481;BME280;44634;54.110;12.138;2022-07-29T06:23:14;101489.25;;;19.83;100.00
16481;BME280;44634;54.110;12.138;2022-07-29T06:25:42;101493.53;;;19.70;100.00
16481;BME280;44634;54.110;12.138;2022-07-29T06:28:10;101506.88;;;20.01;100.00
16481;BME280;44634;54.110;12.138;2022-07-29T06:30:38;101515.22;;;20.06;100.00
16481;BME280;44634;54.110;12.138;2022-07-29T06:33:06;101529.78;;;19.88;100.00
16481;BME280;44634;54.110;12.138;2022-07-29T06:35:36;101534.34;;;20.11;100.00
16481;BME280;44634;54.110;12.138;2022-07-29T06:38:10;101555.63;;;19.89;100.00
16481;BME280;44634;54.110;12.138;2022-07-29T06:40:59;101563.78;;;20.19;100.00
16481;BME280;44634;54.110;12.138;2022-07-29T06:43:28;101575.59;;;20.56;100.00
16481;BME280;44634;54.110;12.138;2022-07-29T06:46:01;101590.78;;;20.63;100.00
16481;BME280;44634;54.110;12.138;2022-07-29T06:48:30;101601.19;;;20.81;100.00
16481;BME280;44634;54.110;12.138;2022-07-29T06:50:59;101625.47;;;20.73;100.00
16481;BME280;44634;54.110;12.138;2022-07-29T06:53:28;101637.16;;;20.80;100.00
16481;BME280;44634;54.110;12.138;2022-07-29T06:55:56;101655.72;;;20.90;100.00
16481;BME280;44634;54.110;12.138;2022-07-29T06:58:26;101686.59;;;20.94;100.00
16481;BME280;44634;54.110;12.138;2022-07-29T07:00:55;101702.94;;;21.07;100.00
16481;BME280;44634;54.110;12.138;2022-07-29T07:03:24;101720.13;;;21.21;100.00
16481;BME280;44634;54.110;12.138;2022-07-29T07:05:52;101717.75;;;21.41;100.00
16481;BME280;44634;54.110;12.138;2022-07-29T07:08:22;101739.25;;;21.26;100.00
16481;BME280;44634;54.110;12.138;2022-07-29T07:10:51;101742.63;;;21.28;100.00
16481;BME280;44634;54.110;12.138;2022-07-29T07:13:19;101752.22;;;21.89;100.00
16481;BME280;44634;54.110;12.138;2022-07-29T07:15:47;101761.69;;;21.56;100.00
16481;BME280;44634;54.110;12.138;2022-07-29T07:18:17;101770.03;;;22.05;100.00
16481;BME280;44634;54.110;12.138;2022-07-29T07:20:45;101784.97;;;22.22;100.00
16481;BME280;44634;54.110;12.138;2022-07-29T07:23:13;101802.28;;;22.13;100.00
16481;BME280;44634;54.110;12.138;2022-07-29T07:25:43;101793.88;;;22.23;100.00
16481;BME280;44634;54.110;12.138;2022-07-29T07:28:11;101793.31;;;21.98;100.00
16481;BME280;44634;54.110;12.138;2022-07-29T07:30:39;101797.31;;;22.32;100.00
16481;BME280;44634;54.110;12.138;2022-07-29T07:33:07;101801.00;;;22.45;100.00
16481;BME280;44634;54.110;12.138;2022-07-29T07:35:35;101798.72;;;22.64;100.00
16481;BME280;44634;54.110;12.138;2022-07-29T07:38:02;101806.34;;;23.18;100.00
16481;BME280;44634;54.110;12.138;2022-07-29T07:40:32;101793.00;;;22.52;100.00
16481;BME280;44634;54.110;12.138;2022-07-29T07:43:01;101802.50;;;22.48;100.00
16481;BME280;44634;54.110;12.138;2022-07-29T07:45:29;101786.09;;;22.85;100.00
16481;BME280;44634;54.110;12.138;2022-07-29T07:47:59;101800.13;;;23.17;100.00
16481;BME280;44634;54.110;12.138;2022-07-29T07:50:27;101810.38;;;23.56;100.00
16481;BME280;44634;54.110;12.138;2022-07-29T07:52:55;101806.97;;;23.20;100.00
16481;BME280;44634;54.110;12.138;2022-07-29T07:55:25;101812.75;;;24.00;100.00
16481;BME280;44634;54.110;12.138;2022-07-29T07:57:53;101820.06;;;23.72;100.00
16481;BME280;44634;54.110;12.138;2022-07-29T08:00:22;101834.31;;;24.76;100.00
16481;BME280;44634;54.110;12.138;2022-07-29T08:02:50;101822.31;;;23.68;100.00
16481;BME280;44634;54.110;12.138;2022-07-29T08:05:18;101815.91;;;23.69;100.00
16481;BME280;44634;54.110;12.138;2022-07-29T08:07:46;101822.38;;;24.10;100.00
16481;BME280;44634;54.110;12.138;2022-07-29T08:10:15;101816.72;;;24.39;100.00
16481;BME280;44634;54.110;12.138;2022-07-29T08:13:04;101838.25;;;24.26;100.00
16481;BME280;44634;54.110;12.138;2022-07-29T08:15:33;101822.38;;;24.57;100.00
16481;BME280;44634;54.110;12.138;2022-07-29T08:18:03;101845.38;;;24.95;100.00
16481;BME280;44634;54.110;12.138;2022-07-29T08:20:34;101830.59;;;24.90;100.00
16481;BME280;44634;54.110;12.138;2022-07-29T08:23:03;101833.97;;;24.38;100.00
16481;BME280;44634;54.110;12.138;2022-07-29T08:25:32;101845.59;;;24.93;100.00
16481;BME280;44634;54.110;12.138;2022-07-29T08:28:05;101857.94;;;25.29;100.00
16481;BME280;44634;54.110;12.138;2022-07-29T08:30:34;101858.19;;;24.66;100.00
16481;BME280;44634;54.110;12.138;2022-07-29T08:33:03;101864.28;;;24.88;100.00
16481;BME280;44634;54.110;12.138;2022-07-29T08:35:31;101848.50;;;24.91;100.00
16481;BME280;44634;54.110;12.138;2022-07-29T08:38:02;101857.09;;;25.21;100.00
16481;BME280;44634;54.110;12.138;2022-07-29T08:40:30;101854.72;;;24.85;100.00
16481;BME280;44634;54.110;12.138;2022-07-29T08:42:59;101852.22;;;24.77;100.00
16481;BME280;44634;54.110;12.138;2022-07-29T08:45:28;101861.81;;;25.00;100.00
16481;BME280;44634;54.110;12.138;2022-07-29T08:47:58;101856.06;;;25.36;100.00
16481;BME280;44634;54.110;12.138;2022-07-29T08:50:26;101857.13;;;25.61;100.00
16481;BME280;44634;54.110;12.138;2022-07-29T08:52:54;101848.97;;;25.41;100.00
16481;BME280;44634;54.110;12.138;2022-07-29T08:55:25;101864.41;;;25.61;100.00
16481;BME280;44634;54.110;12.138;2022-07-29T08:57:55;101863.97;;;25.24;100.00
16481;BME280;44634;54.110;12.138;2022-07-29T09:00:24;101851.69;;;25.88;100.00
16481;BME280;44634;54.110;12.138;2022-07-29T09:02:57;101853.53;;;26.07;100.00
16481;BME280;44634;54.110;12.138;2022-07-29T09:05:26;101862.81;;;26.82;100.00
16481;BME280;44634;54.110;12.138;2022-07-29T09:07:54;101857.78;;;26.86;100.00
16481;BME280;44634;54.110;12.138;2022-07-29T09:10:23;101864.66;;;26.50;99.87
16481;BME280;44634;54.110;12.138;2022-07-29T09:12:51;101872.25;;;26.73;97.05
16481;BME280;44634;54.110;12.138;2022-07-29T09:15:18;101861.28;;;26.55;100.00
16481;BME280;44634;54.110;12.138;2022-07-29T09:17:47;101864.19;;;27.30;93.65
16481;BME280;44634;54.110;12.138;2022-07-29T09:20:18;101871.63;;;27.16;95.39
16481;BME280;44634;54.110;12.138;2022-07-29T09:22:48;101870.53;;;26.41;91.56
16481;BME280;44634;54.110;12.138;2022-07-29T09:25:32;101860.75;;;26.26;97.07
16481;BME280;44634;54.110;12.138;2022-07-29T09:28:06;101863.34;;;26.66;97.29
16481;BME280;44634;54.110;12.138;2022-07-29T09:30:35;101867.69;;;26.02;99.42
16481;BME280;44634;54.110;12.138;2022-07-29T09:33:03;101867.72;;;25.96;96.41
16481;BME280;44634;54.110;12.138;2022-07-29T09:35:32;101857.78;;;26.48;99.61
16481;BME280;44634;54.110;12.138;2022-07-29T09:38:10;101864.78;;;26.10;98.76
16481;BME280;44634;54.110;12.138;2022-07-29T09:40:38;101859.81;;;25.88;100.00
16481;BME280;44634;54.110;12.138;2022-07-29T09:43:10;101870.00;;;25.59;99.30
16481;BME280;44634;54.110;12.138;2022-07-29T09:45:38;101863.97;;;25.44;100.00
16481;BME280;44634;54.110;12.138;2022-07-29T09:48:14;101856.06;;;25.56;100.00
16481;BME280;44634;54.110;12.138;2022-07-29T09:50:45;101871.88;;;25.98;93.37
16481;BME280;44634;54.110;12.138;2022-07-29T09:53:30;101872.94;;;25.97;89.67
16481;BME280;44634;54.110;12.138;2022-07-29T09:55:59;101871.91;;;25.85;90.32
16481;BME280;44634;54.110;12.138;2022-07-29T09:58:26;101872.84;;;26.37;86.10
16481;BME280;44634;54.110;12.138;2022-07-29T10:00:55;101870.34;;;26.29;85.78
16481;BME280;44634;54.110;12.138;2022-07-29T10:03:23;101864.38;;;26.07;96.74
16481;BME280;44634;54.110;12.138;2022-07-29T10:06:06;101856.97;;;26.41;94.94
16481;BME280;44634;54.110;12.138;2022-07-29T10:08:34;101851.88;;;25.99;96.95
16481;BME280;44634;54.110;12.138;2022-07-29T10:11:10;101854.84;;;26.87;88.34
16481;BME280;44634;54.110;12.138;2022-07-29T10:13:38;101860.50;;;26.48;86.00
16481;BME280;44634;54.110;12.138;2022-07-29T10:16:07;101858.25;;;26.76;82.80
16481;BME280;44634;54.110;12.138;2022-07-29T10:18:38;101863.03;;;26.29;83.12
16481;BME280;44634;54.110;12.138;2022-07-29T10:21:07;101859.41;;;26.55;85.45
16481;BME280;44634;54.110;12.138;2022-07-29T10:23:48;101861.91;;;26.95;78.37
16481;BME280;44634;54.110;12.138;2022-07-29T10:26:16;101862.28;;;27.37;76.45
16481;BME280;44634;54.110;12.138;2022-07-29T10:28:45;101864.88;;;26.87;77.11
16481;BME280;44634;54.110;12.138;2022-07-29T10:31:18;101864.09;;;26.80;76.30
16481;BME280;44634;54.110;12.138;2022-07-29T10:33:56;101861.31;;;27.24;75.60
16481;BME280;44634;54.110;12.138;2022-07-29T10:36:41;101848.81;;;27.92;73.81
16481;BME280;44634;54.110;12.138;2022-07-29T10:39:23;101854.97;;;28.24;67.63
16481;BME280;44634;54.110;12.138;2022-07-29T10:42:17;101850.63;;;29.01;59.78
16481;BME280;44634;54.110;12.138;2022-07-29T10:44:58;101840.75;;;30.00;51.54
16481;BME280;44634;54.110;12.138;2022-07-29T10:47:27;101833.47;;;30.69;52.21
16481;BME280;44634;54.110;12.138;2022-07-29T10:49:56;101832.22;;;30.77;53.02
16481;BME280;44634;54.110;12.138;2022-07-29T10:52:55;101838.50;;;29.85;53.48
16481;BME280;44634;54.110;12.138;2022-07-29T10:55:34;101838.59;;;28.60;62.20
16481;BME280;44634;54.110;12.138;2022-07-29T10:58:13;101842.97;;;28.61;68.43
16481;BME280;44634;54.110;12.138;2022-07-29T11:00:44;101837.56;;;28.06;71.08
16481;BME280;44634;54.110;12.138;2022-07-29T11:06:22;101834.72;;;28.38;72.64
16481;BME280;44634;54.110;12.138;2022-07-29T11:09:17;101834.47;;;28.58;67.99
16481;BME280;44634;54.110;12.138;2022-07-29T11:12:04;101828.72;;;28.96;68.78
16481;BME280;44634;54.110;12.138;2022-07-29T11:14:56;101823.22;;;28.54;75.44
16481;BME280;44634;54.110;12.138;2022-07-29T11:17:25;101827.16;;;28.40;71.62
16481;BME280;44634;54.110;12.138;2022-07-29T11:20:31;101826.94;;;28.41;73.27
16481;BME280;44634;54.110;12.138;2022-07-29T11:22:59;101827.75;;;27.69;79.25
16481;BME280;44634;54.110;12.138;2022-07-29T11:25:29;101824.88;;;27.82;77.47
16481;BME280;44634;54.110;12.138;2022-07-29T11:28:19;101821.72;;;27.85;76.86
16481;BME280;44634;54.110;12.138;2022-07-29T11:30:52;101812.03;;;27.89;79.49
16481;BME280;44634;54.110;12.138;2022-07-29T11:33:28;101807.38;;;27.53;80.98
16481;BME280;44634;54.110;12.138;2022-07-29T11:36:15;101808.03;;;27.48;79.93
16481;BME280;44634;54.110;12.138;2022-07-29T11:38:43;101807.31;;;27.60;80.73
16481;BME280;44634;54.110;12.138;2022-07-29T11:41:24;101805.41;;;27.85;81.75
16481;BME280;44634;54.110;12.138;2022-07-29T11:43:54;101799.09;;;27.23;85.11
16481;BME280;44634;54.110;12.138;2022-07-29T11:46:44;101799.38;;;27.58;85.41
16481;BME280;44634;54.110;12.138;2022-07-29T11:49:13;101795.72;;;27.71;86.29
16481;BME280;44634;54.110;12.138;2022-07-29T11:52:06;101802.59;;;27.92;84.11
16481;BME280;44634;54.110;12.138;2022-07-29T11:54:38;101799.66;;;28.11;85.25
16481;BME280;44634;54.110;12.138;2022-07-29T11:57:25;101798.09;;;27.61;84.32
16481;BME280;44634;54.110;12.138;2022-07-29T12:00:21;101791.91;;;27.78;85.60
16481;BME280;44634;54.110;12.138;2022-07-29T12:02:50;101793.47;;;27.86;84.86
16481;BME280;44634;54.110;12.138;2022-07-29T12:05:18;101796.66;;;27.58;85.92
16481;BME280;44634;54.110;12.138;2022-07-29T12:08:11;101790.38;;;28.37;83.46
16481;BME280;44634;54.110;12.138;2022-07-29T12:10:40;101790.72;;;28.41;82.11
16481;BME280;44634;54.110;12.138;2022-07-29T12:13:10;101783.16;;;29.73;70.21
16481;BME280;44634;54.110;12.138;2022-07-29T12:15:39;101787.88;;;29.31;70.03
16481;BME280;44634;54.110;12.138;2022-07-29T12:18:17;101793.44;;;29.01;74.13
16481;BME280;44634;54.110;12.138;2022-07-29T12:20:56;101781.97;;;28.69;77.88
16481;BME280;44634;54.110;12.138;2022-07-29T12:23:29;101779.50;;;27.82;86.46
16481;BME280;44634;54.110;12.138;2022-07-29T12:26:04;101780.56;;;27.38;88.00
16481;BME280;44634;54.110;12.138;2022-07-29T12:28:38;101785.63;;;27.78;79.77
16481;BME280;44634;54.110;12.138;2022-07-29T12:31:12;101786.97;;;28.05;79.46
16481;BME280;44634;54.110;12.138;2022-07-29T12:34:00;101777.41;;;27.84;82.61
16481;BME280;44634;54.110;12.138;2022-07-29T12:36:29;101779.84;;;27.49;88.06
16481;BME280;44634;54.110;12.138;2022-07-29T12:38:57;101776.84;;;28.31;83.59
16481;BME280;44634;54.110;12.138;2022-07-29T12:41:24;101777.91;;;28.30;82.13
16481;BME280;44634;54.110;12.138;2022-07-29T12:43:56;101775.19;;;27.75;86.60
16481;BME280;44634;54.110;12.138;2022-07-29T12:46:24;101778.59;;;28.07;84.82
16481;BME280;44634;54.110;12.138;2022-07-29T12:48:53;101783.06;;;27.83;88.21
16481;BME280;44634;54.110;12.138;2022-07-29T12:51:29;101776.66;;;27.52;91.88
16481;BME280;44634;54.110;12.138;2022-07-29T12:54:05;101774.13;;;27.76;91.70
16481;BME280;44634;54.110;12.138;2022-07-29T12:56:34;101766.16;;;27.38;90.21
16481;BME280;44634;54.110;12.138;2022-07-29T12:59:14;101775.25;;;28.05;82.06